sensor_id;sensor_type;location;lat;lon;timestamp;P1;durP1;ratioP1;P2;durP2;ratioP2
51020;SDS011;38907;45.562;8.856;2023-01-23T00:00:33;45.70;;;22.55;;
51020;SDS011;38907;45.562;8.856;2023-01-23T00:05:35;45.33;;;23.70;;
51020;SDS011;38907;45.562;8.856;2023-01-23T00:10:39;44.95;;;24.25;;
51020;SDS011;38907;45.562;8.856;2023-01-23T00:15:41;54.65;;;28.77;;
51020;SDS011;38907;45.562;8.856;2023-01-23T00:20:42;43.55;;;23.67;;
51020;SDS011;38907;45.562;8.856;2023-01-23T00:25:46;34.25;;;20.38;;
51020;SDS011;38907;45.562;8.856;2023-01-23T00:30:48;37.90;;;21.92;;
51020;SDS011;38907;45.562;8.856;2023-01-23T00:35:52;36.80;;;20.63;;
51020;SDS011;38907;45.562;8.856;2023-01-23T00:40:56;34.80;;;19.95;;
51020;SDS011;38907;45.562;8.856;2023-01-23T00:45:58;29.67;;;18.67;;
51020;SDS011;38907;45.562;8.856;2023-01-23T00:51:00;33.50;;;19.98;;
51020;SDS011;38907;45.562;8.856;2023-01-23T00:56:03;33.25;;;19.35;;
51020;SDS011;38907;45.562;8.856;2023-01-23T01:01:06;38.55;;;21.48;;
51020;SDS011;38907;45.562;8.856;2023-01-23T01:06:08;36.95;;;20.98;;
51020;SDS011;38907;45.562;8.856;2023-01-23T01:11:12;35.63;;;20.45;;
51020;SDS011;38907;45.562;8.856;2023-01-23T01:16:14;34.38;;;20.23;;
51020;SDS011;38907;45.562;8.856;2023-01-23T01:21:16;32.30;;;20.83;;
51020;SDS011;38907;45.562;8.856;2023-01-23T01:26:20;35.20;;;21.17;;
51020;SDS011;38907;45.562;8.856;2023-01-23T01:31:25;34.75;;;20.52;;
51020;SDS011;38907;45.562;8.856;2023-01-23T01:36:27;36.92;;;19.95;;
51020;SDS011;38907;45.562;8.856;2023-01-23T01:41:30;35.58;;;19.83;;
51020;SDS011;38907;45.562;8.856;2023-01-23T01:46:32;33.75;;;19.90;;
51020;SDS011;38907;45.562;8.856;2023-01-23T01:51:35;33.85;;;19.10;;
51020;SDS011;38907;45.562;8.856;2023-01-23T01:56:43;32.58;;;20.15;;
51020;SDS011;38907;45.562;8.856;2023-01-23T02:01:50;30.33;;;19.00;;
51020;SDS011;38907;45.562;8.856;2023-01-23T02:06:57;34.25;;;19.40;;
51020;SDS011;38907;45.562;8.856;2023-01-23T02:17:04;34.58;;;17.67;;
51020;SDS011;38907;45.562;8.856;2023-01-23T02:22:09;29.52;;;18.10;;
51020;SDS011;38907;45.562;8.856;2023-01-23T02:27:19;28.30;;;16.92;;
51020;SDS011;38907;45.562;8.856;2023-01-23T02:32:21;31.55;;;16.75;;
51020;SDS011;38907;45.562;8.856;2023-01-23T02:37:25;29.67;;;17.80;;
51020;SDS011;38907;45.562;8.856;2023-01-23T02:42:34;29.38;;;17.45;;
51020;SDS011;38907;45.562;8.856;2023-01-23T02:52:38;32.78;;;17.45;;
51020;SDS011;38907;45.562;8.856;2023-01-23T02:57:41;29.92;;;17.85;;
51020;SDS011;38907;45.562;8.856;2023-01-23T03:02:44;31.00;;;18.75;;
51020;SDS011;38907;45.562;8.856;2023-01-23T03:07:47;29.87;;;18.43;;
51020;SDS011;38907;45.562;8.856;2023-01-23T03:12:50;26.08;;;16.38;;
51020;SDS011;38907;45.562;8.856;2023-01-23T03:17:52;29.00;;;16.95;;
51020;SDS011;38907;45.562;8.856;2023-01-23T03:22:55;26.13;;;16.05;;
51020;SDS011;38907;45.562;8.856;2023-01-23T03:27:58;35.35;;;17.98;;
51020;SDS011;38907;45.562;8.856;2023-01-23T03:33:00;33.63;;;19.52;;
51020;SDS011;38907;45.562;8.856;2023-01-23T03:38:02;29.52;;;17.73;;
51020;SDS011;38907;45.562;8.856;2023-01-23T03:43:05;29.05;;;18.42;;
51020;SDS011;38907;45.562;8.856;2023-01-23T03:48:07;28.58;;;18.02;;
51020;SDS011;38907;45.562;8.856;2023-01-23T03:53:09;30.52;;;17.77;;
51020;SDS011;38907;45.562;8.856;2023-01-23T03:58:12;26.92;;;17.42;;
51020;SDS011;38907;45.562;8.856;2023-01-23T04:03:14;27.27;;;16.90;;
51020;SDS011;38907;45.562;8.856;2023-01-23T04:08:16;34.47;;;16.92;;
51020;SDS011;38907;45.562;8.856;2023-01-23T04:13:19;29.70;;;17.33;;
51020;SDS011;38907;45.562;8.856;2023-01-23T04:18:21;26.92;;;17.00;;
51020;SDS011;38907;45.562;8.856;2023-01-23T04:23:23;31.45;;;17.30;;
51020;SDS011;38907;45.562;8.856;2023-01-23T04:28:27;26.73;;;17.33;;
51020;SDS011;38907;45.562;8.856;2023-01-23T04:33:28;29.73;;;17.02;;
51020;SDS011;38907;45.562;8.856;2023-01-23T04:38:30;24.75;;;16.45;;
51020;SDS011;38907;45.562;8.856;2023-01-23T04:43:35;27.77;;;17.17;;
51020;SDS011;38907;45.562;8.856;2023-01-23T04:48:36;26.67;;;16.08;;
51020;SDS011;38907;45.562;8.856;2023-01-23T04:53:38;30.38;;;15.40;;
51020;SDS011;38907;45.562;8.856;2023-01-23T04:58:42;25.30;;;15.35;;
51020;SDS011;38907;45.562;8.856;2023-01-23T05:03:44;26.63;;;16.05;;
51020;SDS011;38907;45.562;8.856;2023-01-23T05:08:46;24.67;;;15.15;;
51020;SDS011;38907;45.562;8.856;2023-01-23T05:13:49;22.70;;;14.65;;
51020;SDS011;38907;45.562;8.856;2023-01-23T05:18:51;28.00;;;16.08;;
51020;SDS011;38907;45.562;8.856;2023-01-23T05:23:53;23.38;;;15.18;;
51020;SDS011;38907;45.562;8.856;2023-01-23T05:28:56;23.27;;;14.23;;
51020;SDS011;38907;45.562;8.856;2023-01-23T05:33:58;33.97;;;14.18;;
51020;SDS011;38907;45.562;8.856;2023-01-23T05:39:00;23.60;;;13.90;;
51020;SDS011;38907;45.562;8.856;2023-01-23T05:44:03;20.63;;;12.50;;
51020;SDS011;38907;45.562;8.856;2023-01-23T05:49:05;22.35;;;12.25;;
51020;SDS011;38907;45.562;8.856;2023-01-23T05:54:07;19.52;;;11.80;;
51020;SDS011;38907;45.562;8.856;2023-01-23T05:59:11;15.27;;;9.95;;
51020;SDS011;38907;45.562;8.856;2023-01-23T06:04:13;14.77;;;9.73;;
51020;SDS011;38907;45.562;8.856;2023-01-23T06:09:15;17.17;;;10.43;;
51020;SDS011;38907;45.562;8.856;2023-01-23T06:14:18;14.88;;;9.32;;
51020;SDS011;38907;45.562;8.856;2023-01-23T06:19:20;13.85;;;8.38;;
51020;SDS011;38907;45.562;8.856;2023-01-23T06:24:22;17.17;;;7.88;;
51020;SDS011;38907;45.562;8.856;2023-01-23T06:29:25;11.95;;;7.50;;
51020;SDS011;38907;45.562;8.856;2023-01-23T06:34:27;12.10;;;7.72;;
51020;SDS011;38907;45.562;8.856;2023-01-23T06:39:29;12.60;;;6.90;;
51020;SDS011;38907;45.562;8.856;2023-01-23T06:44:34;13.95;;;7.72;;
51020;SDS011;38907;45.562;8.856;2023-01-23T06:49:36;14.75;;;8.27;;
51020;SDS011;38907;45.562;8.856;2023-01-23T06:54:38;14.63;;;7.55;;
51020;SDS011;38907;45.562;8.856;2023-01-23T06:59:41;14.10;;;8.25;;
51020;SDS011;38907;45.562;8.856;2023-01-23T07:04:43;16.23;;;8.43;;
51020;SDS011;38907;45.562;8.856;2023-01-23T07:09:45;11.50;;;7.47;;
51020;SDS011;38907;45.562;8.856;2023-01-23T07:14:48;15.25;;;7.60;;
51020;SDS011;38907;45.562;8.856;2023-01-23T07:19:50;12.02;;;7.35;;
51020;SDS011;38907;45.562;8.856;2023-01-23T07:24:51;11.18;;;7.32;;
51020;SDS011;38907;45.562;8.856;2023-01-23T07:29:55;20.50;;;10.43;;
51020;SDS011;38907;45.562;8.856;2023-01-23T07:34:57;17.45;;;8.23;;
51020;SDS011;38907;45.562;8.856;2023-01-23T07:39:59;10.00;;;6.05;;
51020;SDS011;38907;45.562;8.856;2023-01-23T07:45:02;10.93;;;6.47;;
51020;SDS011;38907;45.562;8.856;2023-01-23T07:50:04;9.98;;;6.38;;
51020;SDS011;38907;45.562;8.856;2023-01-23T07:55:07;10.63;;;6.00;;
51020;SDS011;38907;45.562;8.856;2023-01-23T08:00:11;13.85;;;7.10;;
51020;SDS011;38907;45.562;8.856;2023-01-23T08:10:15;24.85;;;8.25;;
51020;SDS011;38907;45.562;8.856;2023-01-23T08:15:19;25.80;;;8.23;;
51020;SDS011;38907;45.562;8.856;2023-01-23T08:20:21;14.60;;;8.35;;
51020;SDS011;38907;45.562;8.856;2023-01-23T08:25:23;13.90;;;7.05;;
51020;SDS011;38907;45.562;8.856;2023-01-23T08:30:26;15.85;;;7.68;;
51020;SDS011;38907;45.562;8.856;2023-01-23T08:35:29;13.20;;;7.60;;
51020;SDS011;38907;45.562;8.856;2023-01-23T08:40:31;10.80;;;7.00;;
51020;SDS011;38907;45.562;8.856;2023-01-23T08:45:34;13.77;;;7.18;;
51020;SDS011;38907;45.562;8.856;2023-01-23T08:50:36;13.55;;;8.38;;
51020;SDS011;38907;45.562;8.856;2023-01-23T08:55:38;14.30;;;7.60;;
51020;SDS011;38907;45.562;8.856;2023-01-23T09:00:42;11.82;;;7.28;;
51020;SDS011;38907;45.562;8.856;2023-01-23T09:05:44;14.95;;;6.80;;
51020;SDS011;38907;45.562;8.856;2023-01-23T09:10:46;9.80;;;6.22;;
51020;SDS011;38907;45.562;8.856;2023-01-23T09:15:49;9.30;;;6.88;;
51020;SDS011;38907;45.562;8.856;2023-01-23T09:20:51;17.75;;;7.18;;
51020;SDS011;38907;45.562;8.856;2023-01-23T09:25:53;11.93;;;7.30;;
51020;SDS011;38907;45.562;8.856;2023-01-23T09:31:00;11.95;;;7.05;;
51020;SDS011;38907;45.562;8.856;2023-01-23T09:36:04;25.02;;;8.93;;
51020;SDS011;38907;45.562;8.856;2023-01-23T09:41:07;30.58;;;9.40;;
51020;SDS011;38907;45.562;8.856;2023-01-23T09:46:14;13.68;;;8.82;;
51020;SDS011;38907;45.562;8.856;2023-01-23T09:51:20;19.65;;;9.82;;
51020;SDS011;38907;45.562;8.856;2023-01-23T09:56:28;15.77;;;9.18;;
51020;SDS011;38907;45.562;8.856;2023-01-23T10:01:33;12.52;;;7.97;;
51020;SDS011;38907;45.562;8.856;2023-01-23T10:06:43;16.75;;;7.68;;
51020;SDS011;38907;45.562;8.856;2023-01-23T10:12:01;17.42;;;7.35;;
51020;SDS011;38907;45.562;8.856;2023-01-23T10:17:11;15.02;;;7.47;;
51020;SDS011;38907;45.562;8.856;2023-01-23T10:22:31;11.98;;;7.30;;
51020;SDS011;38907;45.562;8.856;2023-01-23T10:27:37;19.13;;;9.68;;
51020;SDS011;38907;45.562;8.856;2023-01-23T10:32:45;20.98;;;11.23;;
51020;SDS011;38907;45.562;8.856;2023-01-23T10:37:51;29.17;;;14.32;;
51020;SDS011;38907;45.562;8.856;2023-01-23T10:43:00;24.65;;;12.02;;
51020;SDS011;38907;45.562;8.856;2023-01-23T10:48:04;25.15;;;11.95;;
51020;SDS011;38907;45.562;8.856;2023-01-23T10:53:37;73.60;;;29.98;;
51020;SDS011;38907;45.562;8.856;2023-01-23T10:58:39;27.95;;;14.77;;
51020;SDS011;38907;45.562;8.856;2023-01-23T11:03:44;37.80;;;17.48;;
51020;SDS011;38907;45.562;8.856;2023-01-23T11:08:49;32.17;;;15.93;;
51020;SDS011;38907;45.562;8.856;2023-01-23T11:14:03;28.13;;;13.55;;
51020;SDS011;38907;45.562;8.856;2023-01-23T11:19:17;24.58;;;12.85;;
51020;SDS011;38907;45.562;8.856;2023-01-23T11:24:26;17.08;;;11.07;;
51020;SDS011;38907;45.562;8.856;2023-01-23T11:29:41;27.15;;;12.07;;
51020;SDS011;38907;45.562;8.856;2023-01-23T11:35:01;22.15;;;11.18;;
51020;SDS011;38907;45.562;8.856;2023-01-23T11:40:11;23.75;;;12.10;;
51020;SDS011;38907;45.562;8.856;2023-01-23T11:45:19;20.13;;;12.52;;
51020;SDS011;38907;45.562;8.856;2023-01-23T11:50:36;18.48;;;11.57;;
51020;SDS011;38907;45.562;8.856;2023-01-23T12:01:10;18.48;;;11.98;;
51020;SDS011;38907;45.562;8.856;2023-01-23T12:06:24;23.80;;;12.95;;
51020;SDS011;38907;45.562;8.856;2023-01-23T12:11:35;22.55;;;13.10;;
51020;SDS011;38907;45.562;8.856;2023-01-23T12:16:55;31.38;;;16.70;;
51020;SDS011;38907;45.562;8.856;2023-01-23T12:22:11;26.25;;;14.75;;
51020;SDS011;38907;45.562;8.856;2023-01-23T12:27:19;29.58;;;15.95;;
51020;SDS011;38907;45.562;8.856;2023-01-23T12:32:32;31.92;;;16.58;;
51020;SDS011;38907;45.562;8.856;2023-01-23T12:37:49;36.00;;;17.42;;
51020;SDS011;38907;45.562;8.856;2023-01-23T12:43:06;29.92;;;14.18;;
51020;SDS011;38907;45.562;8.856;2023-01-23T12:48:14;29.17;;;14.77;;
51020;SDS011;38907;45.562;8.856;2023-01-23T12:53:21;26.63;;;14.57;;
51020;SDS011;38907;45.562;8.856;2023-01-23T12:58:24;19.65;;;10.70;;
51020;SDS011;38907;45.562;8.856;2023-01-23T13:03:33;19.15;;;9.90;;
51020;SDS011;38907;45.562;8.856;2023-01-23T13:08:48;19.63;;;10.95;;
51020;SDS011;38907;45.562;8.856;2023-01-23T13:13:53;22.15;;;11.07;;
51020;SDS011;38907;45.562;8.856;2023-01-23T13:18:55;24.92;;;10.80;;
51020;SDS011;38907;45.562;8.856;2023-01-23T13:35:52;15.30;;;10.85;;
51020;SDS011;38907;45.562;8.856;2023-01-23T13:46:31;21.40;;;10.88;;
51020;SDS011;38907;45.562;8.856;2023-01-23T13:51:43;18.55;;;11.48;;
51020;SDS011;38907;45.562;8.856;2023-01-23T13:56:47;21.35;;;12.88;;
51020;SDS011;38907;45.562;8.856;2023-01-23T14:01:53;24.85;;;13.68;;
51020;SDS011;38907;45.562;8.856;2023-01-23T14:07:22;21.83;;;12.75;;
51020;SDS011;38907;45.562;8.856;2023-01-23T14:12:43;19.50;;;11.57;;
51020;SDS011;38907;45.562;8.856;2023-01-23T14:17:45;20.08;;;11.30;;
51020;SDS011;38907;45.562;8.856;2023-01-23T14:22:47;24.88;;;11.68;;
51020;SDS011;38907;45.562;8.856;2023-01-23T14:27:57;20.17;;;12.35;;
51020;SDS011;38907;45.562;8.856;2023-01-23T14:33:09;25.67;;;12.43;;
51020;SDS011;38907;45.562;8.856;2023-01-23T14:38:13;26.63;;;13.02;;
51020;SDS011;38907;45.562;8.856;2023-01-23T14:43:22;22.15;;;12.55;;
51020;SDS011;38907;45.562;8.856;2023-01-23T14:48:27;21.63;;;14.23;;
51020;SDS011;38907;45.562;8.856;2023-01-23T14:53:29;25.55;;;14.68;;
51020;SDS011;38907;45.562;8.856;2023-01-23T14:58:32;29.15;;;15.80;;
51020;SDS011;38907;45.562;8.856;2023-01-23T15:03:39;25.35;;;16.42;;
51020;SDS011;38907;45.562;8.856;2023-01-23T15:08:42;28.30;;;14.57;;
51020;SDS011;38907;45.562;8.856;2023-01-23T15:13:47;25.95;;;15.25;;
51020;SDS011;38907;45.562;8.856;2023-01-23T15:18:55;32.30;;;16.02;;
51020;SDS011;38907;45.562;8.856;2023-01-23T15:29:28;38.03;;;19.02;;
51020;SDS011;38907;45.562;8.856;2023-01-23T15:34:31;32.15;;;18.00;;
51020;SDS011;38907;45.562;8.856;2023-01-23T15:39:36;33.33;;;18.23;;
51020;SDS011;38907;45.562;8.856;2023-01-23T15:44:41;38.25;;;18.85;;
51020;SDS011;38907;45.562;8.856;2023-01-23T15:49:44;36.10;;;17.73;;
51020;SDS011;38907;45.562;8.856;2023-01-23T15:54:46;32.78;;;18.13;;
51020;SDS011;38907;45.562;8.856;2023-01-23T15:59:51;32.15;;;17.75;;
51020;SDS011;38907;45.562;8.856;2023-01-23T16:04:53;37.83;;;19.17;;
51020;SDS011;38907;45.562;8.856;2023-01-23T16:09:55;28.92;;;17.13;;
51020;SDS011;38907;45.562;8.856;2023-01-23T16:14:58;34.95;;;19.30;;
51020;SDS011;38907;45.562;8.856;2023-01-23T16:20:00;34.47;;;17.73;;
51020;SDS011;38907;45.562;8.856;2023-01-23T16:25:02;32.13;;;18.17;;
51020;SDS011;38907;45.562;8.856;2023-01-23T16:30:08;28.77;;;15.60;;
51020;SDS011;38907;45.562;8.856;2023-01-23T16:35:15;26.98;;;15.05;;
51020;SDS011;38907;45.562;8.856;2023-01-23T16:40:19;32.63;;;16.45;;
51020;SDS011;38907;45.562;8.856;2023-01-23T16:45:25;30.90;;;15.95;;
51020;SDS011;38907;45.562;8.856;2023-01-23T16:50:30;32.42;;;14.43;;
51020;SDS011;38907;45.562;8.856;2023-01-23T16:55:34;37.53;;;17.55;;
51020;SDS011;38907;45.562;8.856;2023-01-23T17:00:39;26.52;;;16.20;;
51020;SDS011;38907;45.562;8.856;2023-01-23T17:05:42;30.05;;;17.38;;
51020;SDS011;38907;45.562;8.856;2023-01-23T17:10:44;33.35;;;17.52;;
51020;SDS011;38907;45.562;8.856;2023-01-23T17:15:48;29.93;;;17.33;;
51020;SDS011;38907;45.562;8.856;2023-01-23T17:20:51;39.78;;;18.65;;
51020;SDS011;38907;45.562;8.856;2023-01-23T17:25:54;30.73;;;18.37;;
51020;SDS011;38907;45.562;8.856;2023-01-23T17:30:57;38.20;;;21.00;;
51020;SDS011;38907;45.562;8.856;2023-01-23T17:41:03;42.30;;;21.95;;
51020;SDS011;38907;45.562;8.856;2023-01-23T17:46:10;39.10;;;21.15;;
51020;SDS011;38907;45.562;8.856;2023-01-23T17:51:21;48.72;;;22.42;;
51020;SDS011;38907;45.562;8.856;2023-01-23T17:56:24;39.97;;;21.55;;
51020;SDS011;38907;45.562;8.856;2023-01-23T18:01:27;39.53;;;23.80;;
51020;SDS011;38907;45.562;8.856;2023-01-23T18:06:30;43.92;;;23.10;;
51020;SDS011;38907;45.562;8.856;2023-01-23T18:11:32;35.60;;;21.08;;
51020;SDS011;38907;45.562;8.856;2023-01-23T18:16:38;40.58;;;21.52;;
51020;SDS011;38907;45.562;8.856;2023-01-23T18:21:44;49.53;;;24.17;;
51020;SDS011;38907;45.562;8.856;2023-01-23T18:26:50;49.78;;;24.85;;
51020;SDS011;38907;45.562;8.856;2023-01-23T18:32:04;38.70;;;21.30;;
51020;SDS011;38907;45.562;8.856;2023-01-23T18:37:15;35.42;;;18.60;;
51020;SDS011;38907;45.562;8.856;2023-01-23T18:42:26;35.55;;;18.88;;
51020;SDS011;38907;45.562;8.856;2023-01-23T18:47:36;46.33;;;21.77;;
51020;SDS011;38907;45.562;8.856;2023-01-23T18:52:42;32.33;;;18.70;;
51020;SDS011;38907;45.562;8.856;2023-01-23T18:58:06;39.08;;;19.77;;
51020;SDS011;38907;45.562;8.856;2023-01-23T19:03:23;31.58;;;18.13;;
51020;SDS011;38907;45.562;8.856;2023-01-23T19:08:32;33.13;;;20.08;;
51020;SDS011;38907;45.562;8.856;2023-01-23T19:13:36;37.63;;;21.02;;
51020;SDS011;38907;45.562;8.856;2023-01-23T19:18:46;35.03;;;17.55;;
51020;SDS011;38907;45.562;8.856;2023-01-23T19:23:54;67.82;;;23.05;;
51020;SDS011;38907;45.562;8.856;2023-01-23T19:28:58;34.85;;;19.80;;
51020;SDS011;38907;45.562;8.856;2023-01-23T19:39:06;51.53;;;20.35;;
51020;SDS011;38907;45.562;8.856;2023-01-23T19:44:09;38.00;;;21.52;;
51020;SDS011;38907;45.562;8.856;2023-01-23T19:49:15;47.85;;;23.85;;
51020;SDS011;38907;45.562;8.856;2023-01-23T19:54:17;50.70;;;22.92;;
51020;SDS011;38907;45.562;8.856;2023-01-23T19:59:20;48.42;;;24.27;;
51020;SDS011;38907;45.562;8.856;2023-01-23T20:04:25;44.30;;;24.08;;
51020;SDS011;38907;45.562;8.856;2023-01-23T20:09:27;40.70;;;21.02;;
51020;SDS011;38907;45.562;8.856;2023-01-23T20:14:29;41.17;;;22.33;;
51020;SDS011;38907;45.562;8.856;2023-01-23T20:19:33;40.15;;;22.15;;
51020;SDS011;38907;45.562;8.856;2023-01-23T20:24:35;41.35;;;20.67;;
51020;SDS011;38907;45.562;8.856;2023-01-23T20:29:37;47.03;;;24.20;;
51020;SDS011;38907;45.562;8.856;2023-01-23T20:34:41;42.42;;;21.70;;
51020;SDS011;38907;45.562;8.856;2023-01-23T20:39:43;49.88;;;23.83;;
51020;SDS011;38907;45.562;8.856;2023-01-23T20:44:45;35.35;;;20.85;;
51020;SDS011;38907;45.562;8.856;2023-01-23T20:49:48;32.45;;;19.02;;
51020;SDS011;38907;45.562;8.856;2023-01-23T20:54:51;41.28;;;21.67;;
51020;SDS011;38907;45.562;8.856;2023-01-23T20:59:54;50.67;;;27.33;;
51020;SDS011;38907;45.562;8.856;2023-01-23T21:04:58;40.17;;;20.48;;
51020;SDS011;38907;45.562;8.856;2023-01-23T21:15:03;33.95;;;18.63;;
51020;SDS011;38907;45.562;8.856;2023-01-23T21:20:08;30.90;;;18.33;;
51020;SDS011;38907;45.562;8.856;2023-01-23T21:25:11;31.67;;;17.73;;
51020;SDS011;38907;45.562;8.856;2023-01-23T21:30:13;30.73;;;17.88;;
51020;SDS011;38907;45.562;8.856;2023-01-23T21:35:16;31.08;;;17.60;;
51020;SDS011;38907;45.562;8.856;2023-01-23T21:40:18;32.53;;;17.65;;
51020;SDS011;38907;45.562;8.856;2023-01-23T21:45:20;35.22;;;18.52;;
51020;SDS011;38907;45.562;8.856;2023-01-23T21:50:24;33.70;;;20.23;;
51020;SDS011;38907;45.562;8.856;2023-01-23T21:55:26;35.20;;;20.30;;
51020;SDS011;38907;45.562;8.856;2023-01-23T22:00:29;38.47;;;17.95;;
51020;SDS011;38907;45.562;8.856;2023-01-23T22:05:50;38.30;;;23.25;;
51020;SDS011;38907;45.562;8.856;2023-01-23T22:10:57;31.42;;;17.40;;
51020;SDS011;38907;45.562;8.856;2023-01-23T22:15:59;28.25;;;16.08;;
51020;SDS011;38907;45.562;8.856;2023-01-23T22:21:04;21.63;;;13.23;;
51020;SDS011;38907;45.562;8.856;2023-01-23T22:26:08;23.10;;;13.70;;
51020;SDS011;38907;45.562;8.856;2023-01-23T22:31:12;22.70;;;14.40;;
51020;SDS011;38907;45.562;8.856;2023-01-23T22:36:17;21.75;;;13.90;;
51020;SDS011;38907;45.562;8.856;2023-01-23T22:41:20;23.25;;;13.75;;
51020;SDS011;38907;45.562;8.856;2023-01-23T22:46:23;27.50;;;14.93;;
51020;SDS011;38907;45.562;8.856;2023-01-23T22:51:27;26.23;;;15.40;;
51020;SDS011;38907;45.562;8.856;2023-01-23T22:56:30;25.80;;;14.88;;
51020;SDS011;38907;45.562;8.856;2023-01-23T23:01:32;28.42;;;16.33;;
51020;SDS011;38907;45.562;8.856;2023-01-23T23:06:36;29.75;;;14.80;;
51020;SDS011;38907;45.562;8.856;2023-01-23T23:11:38;24.23;;;15.65;;
51020;SDS011;38907;45.562;8.856;2023-01-23T23:16:41;23.00;;;14.63;;
51020;SDS011;38907;45.562;8.856;2023-01-23T23:21:44;28.27;;;15.93;;
51020;SDS011;38907;45.562;8.856;2023-01-23T23:26:46;29.17;;;16.13;;
51020;SDS011;38907;45.562;8.856;2023-01-23T23:31:48;37.08;;;16.15;;
51020;SDS011;38907;45.562;8.856;2023-01-23T23:36:52;26.25;;;15.75;;
51020;SDS011;38907;45.562;8.856;2023-01-23T23:41:54;30.52;;;16.77;;
51020;SDS011;38907;45.562;8.856;2023-01-23T23:46:57;35.30;;;16.98;;
51020;SDS011;38907;45.562;8.856;2023-01-23T23:52:00;29.27;;;17.63;;
51020;SDS011;38907;45.562;8.856;2023-01-23T23:57:02;29.95;;;17.50;;
